Melvern, Kansas
Current Conditions -  °F | °C
As of 4:18 AM on Thursday 23 Oct 2014 (Local Time) from KFOE Reporting Station
Light Rain Light Rain  
Wind Chill: 62°   Ceiling: 5000
Heat Index: 62°   Visibility: 3mi
Dew Point: 60°   Wind: 0mph
Humidity: 93%   Direction: NA
Pressure: 30.1"   Gusts: NA
Location:  38.51°N, 95.64°W
Report Text: KFOE 230918Z AUTO 00000KT 3SM -RA BR FEW041 OVC050 17/16 A3010 RMK AO2 P0010 T01670156
Loading
Personal Weather Stations






























Interactive Weather Map
Tropical Storm Tracking
New forecast layout! Learn more

10-Day Weather Forecast

Advertisements
Track Severe Weather on mobile